Time;durP1;ratioP1;P1;durP2;ratioP2;P2;SDS_P1;SDS_P2;PMS_P1;PMS_P2;Temp;Humidity;BMP_temperature;BMP_pressure;BME280_temperature;BME280_humidity;BME280_pressure;Samples;Min_cycle;Max_cycle;Signal;HPM_P1;HPM_P2
2021/08/18 00:04:40;;;;;;;13.30;6.40;;;;;;;16.00;63.70;100140.45;4984723;59;21201;-85
2021/08/18 00:09:47;;;;;;;14.60;9.33;;;;;;;15.97;64.05;100138.11;4984707;59;21177;-83
2021/08/18 00:14:53;;;;;;;9.07;6.17;;;;;;;15.99;63.80;100136.12;4978654;59;21157;-81
2021/08/18 00:19:58;;;;;;;16.57;7.83;;;;;;;15.98;64.29;100138.45;4984345;59;21518;-82
2021/08/18 00:25:05;;;;;;;9.40;6.10;;;;;;;15.96;64.45;100134.27;4984459;59;21188;-87
2021/08/18 00:30:12;;;;;;;11.63;6.00;;;;;;;15.93;64.70;100138.09;4984993;59;21154;-85
2021/08/18 00:35:18;;;;;;;12.77;6.60;;;;;;;15.90;64.88;100143.74;4925297;59;21176;-89
2021/08/18 00:40:24;;;;;;;9.23;5.80;;;;;;;15.91;64.96;100136.58;4907018;60;21184;-84
2021/08/18 00:45:31;;;;;;;14.60;9.10;;;;;;;15.90;64.98;100140.23;4907028;60;21180;-81
2021/08/18 00:50:36;;;;;;;10.70;7.13;;;;;;;15.87;65.06;100137.92;4907156;60;21117;-87
2021/08/18 00:55:43;;;;;;;12.87;7.13;;;;;;;15.85;65.26;100146.58;4907136;60;22151;-84
2021/08/18 01:00:49;;;;;;;11.77;7.23;;;;;;;15.77;65.59;100136.21;4924543;60;22080;-83
2021/08/18 01:05:54;;;;;;;12.93;8.20;;;;;;;15.67;65.80;100136.85;4944839;60;21180;-83
2021/08/18 01:11:00;;;;;;;12.03;6.20;;;;;;;15.57;65.98;100124.16;4944748;60;21196;-85
2021/08/18 01:16:06;;;;;;;12.63;7.10;;;;;;;15.51;66.66;100127.42;4944644;60;21212;-84
2021/08/18 01:21:13;;;;;;;11.63;5.97;;;;;;;15.43;67.06;100122.04;4944696;60;21223;-79
2021/08/18 01:26:18;;;;;;;12.20;8.37;;;;;;;15.38;67.57;100132.36;4944653;60;22148;-81
2021/08/18 01:31:24;;;;;;;9.33;6.20;;;;;;;15.35;67.33;100135.34;4944720;60;21193;-82
2021/08/18 01:36:32;;;;;;;14.53;6.93;;;;;;;15.27;68.25;100132.15;4883766;60;21250;-84
2021/08/18 01:41:38;;;;;;;10.30;7.50;;;;;;;15.25;68.59;100139.46;4883716;60;21184;-84
2021/08/18 01:46:44;;;;;;;12.77;6.73;;;;;;;15.28;68.33;100147.61;4883806;60;21221;-83
2021/08/18 01:51:50;;;;;;;11.63;6.47;;;;;;;15.29;68.96;100142.13;4883905;60;21134;-85
2021/08/18 01:56:56;;;;;;;18.37;7.70;;;;;;;15.35;68.94;100140.67;4884132;60;21481;-82
2021/08/18 02:02:02;;;;;;;12.53;7.93;;;;;;;15.37;68.96;100144.02;4883779;60;21212;-83
2021/08/18 02:07:08;;;;;;;11.70;7.27;;;;;;;15.40;68.95;100136.55;4883758;60;21189;-82
2021/08/18 02:12:14;;;;;;;17.63;7.37;;;;;;;15.40;68.82;100141.03;4883792;60;21125;-86
2021/08/18 02:17:19;;;;;;;11.57;6.63;;;;;;;15.37;69.21;100148.01;4883645;60;21217;-84
2021/08/18 02:22:25;;;;;;;13.20;6.27;;;;;;;15.37;69.01;100142.68;4883772;60;21244;-82
2021/08/18 02:27:31;;;;;;;15.43;7.57;;;;;;;15.33;69.60;100146.16;4883763;60;21177;-84
2021/08/18 02:32:37;;;;;;;13.47;8.27;;;;;;;15.30;69.50;100146.46;4903822;59;21180;-82
2021/08/18 02:37:46;;;;;;;11.53;6.80;;;;;;;15.28;69.64;100152.94;4972340;59;21208;-83
2021/08/18 02:42:57;;;;;;;10.43;6.53;;;;;;;15.24;70.14;100159.11;4972225;59;21645;-85
2021/08/18 02:48:04;;;;;;;18.03;7.90;;;;;;;15.27;70.01;100158.80;4972231;59;21246;-83
2021/08/18 02:53:10;;;;;;;10.53;5.43;;;;;;;15.23;70.20;100159.26;4972458;59;21129;-79
2021/08/18 02:58:15;;;;;;;12.27;7.07;;;;;;;15.20;70.37;100162.23;4972266;59;21232;-85
2021/08/18 03:03:21;;;;;;;12.70;7.10;;;;;;;15.16;70.75;100167.03;4979397;59;21172;-82
2021/08/18 03:08:27;;;;;;;8.53;5.50;;;;;;;15.12;70.82;100167.03;4982565;59;22109;-85
2021/08/18 03:13:33;;;;;;;12.37;5.43;;;;;;;15.13;70.93;100170.84;4982545;59;21192;-86
2021/08/18 03:18:38;;;;;;;13.90;6.70;;;;;;;15.09;71.37;100173.50;4982494;59;21216;-79
2021/08/18 03:23:44;;;;;;;9.37;5.70;;;;;;;15.07;71.58;100171.48;4982523;59;21185;-85
2021/08/18 03:28:50;;;;;;;12.30;6.00;;;;;;;15.08;71.60;100169.66;4982750;59;21260;-90
2021/08/18 03:33:56;;;;;;;11.77;7.43;;;;;;;15.07;71.40;100176.81;4943407;59;21130;-83
2021/08/18 03:39:02;;;;;;;9.63;5.57;;;;;;;15.03;71.79;100182.59;4816230;61;22160;-84
2021/08/18 03:44:07;;;;;;;15.00;6.33;;;;;;;15.03;72.21;100190.09;4902604;60;21192;-83
2021/08/18 03:49:13;;;;;;;12.63;6.70;;;;;;;15.00;72.18;100202.38;4816067;61;21234;-81
2021/08/18 03:54:19;;;;;;;13.03;7.03;;;;;;;15.00;72.07;100194.39;4902377;60;22160;-80
2021/08/18 03:59:25;;;;;;;9.70;5.80;;;;;;;14.95;72.41;100200.70;4816077;61;21538;-81
2021/08/18 04:04:30;;;;;;;14.57;7.03;;;;;;;14.92;72.85;100198.83;4957423;59;21177;-84
2021/08/18 04:09:36;;;;;;;10.00;6.10;;;;;;;14.91;73.10;100212.64;4972467;59;21217;-83
2021/08/18 04:14:41;;;;;;;13.63;7.10;;;;;;;14.88;73.45;100216.94;4972425;59;21165;-80
2021/08/18 04:19:46;;;;;;;16.80;6.80;;;;;;;14.87;73.26;100209.09;4972876;59;21256;-80
2021/08/18 04:24:52;;;;;;;13.03;5.57;;;;;;;14.75;74.17;100204.52;4972559;59;21505;-82
2021/08/18 04:29:59;;;;;;;19.40;6.77;;;;;;;14.69;74.16;100209.11;4972490;59;21536;-82
2021/08/18 04:35:06;;;;;;;10.53;7.10;;;;;;;14.64;74.35;100204.27;4972426;59;21656;-80
2021/08/18 04:40:15;;;;;;;15.17;7.30;;;;;;;14.67;74.55;100200.44;4972628;59;21168;-84
2021/08/18 04:45:21;;;;;;;8.50;4.57;;;;;;;14.69;74.80;100201.12;4972619;59;21181;-86
2021/08/18 04:50:27;;;;;;;11.83;6.70;;;;;;;14.65;75.43;100191.30;4972472;59;21122;-85
2021/08/18 04:55:33;;;;;;;11.03;6.20;;;;;;;14.65;75.63;100195.30;4972674;59;21251;-81
2021/08/18 05:00:38;;;;;;;12.07;7.57;;;;;;;14.64;75.60;100202.93;4972748;59;21181;-81
2021/08/18 05:05:44;;;;;;;19.97;7.80;;;;;;;14.66;75.21;100202.78;4981702;59;21192;-86
2021/08/18 05:10:50;;;;;;;10.67;6.70;;;;;;;14.68;75.20;100204.28;4982909;59;21192;-82
2021/08/18 05:15:55;;;;;;;13.83;7.43;;;;;;;14.77;75.08;100209.19;4982901;59;21125;-84
2021/08/18 05:21:01;;;;;;;10.93;5.90;;;;;;;14.80;75.28;100216.87;4982935;59;21180;-89
2021/08/18 05:26:07;;;;;;;11.13;6.37;;;;;;;14.87;75.31;100221.08;4983003;59;21172;-87
2021/08/18 05:31:13;;;;;;;11.17;6.57;;;;;;;14.93;74.98;100213.82;4982840;59;21204;-81
2021/08/18 05:36:19;;;;;;;8.83;4.83;;;;;;;15.01;74.90;100221.36;4901803;59;21787;-80
2021/08/18 05:41:25;;;;;;;10.67;6.07;;;;;;;15.05;74.58;100215.23;4902699;59;21591;-81
2021/08/18 05:46:31;;;;;;;8.47;4.97;;;;;;;15.14;74.17;100221.79;4903168;60;21245;-84
2021/08/18 05:51:37;;;;;;;8.77;6.00;;;;;;;15.27;73.39;100223.23;4902813;60;21102;-83
2021/08/18 05:56:42;;;;;;;8.67;5.47;;;;;;;15.29;73.14;100231.88;4902354;60;21129;-83
2021/08/18 06:01:48;;;;;;;9.73;5.83;;;;;;;15.29;73.09;100233.21;4932936;59;21239;-86
2021/08/18 06:06:54;;;;;;;11.30;5.93;;;;;;;15.40;72.61;100236.97;5016499;58;21161;-84
2021/08/18 06:12:00;;;;;;;9.70;3.63;;;;;;;15.49;71.78;100228.86;4984349;59;21181;-83
2021/08/18 06:17:06;;;;;;;8.13;5.30;;;;;;;15.57;71.45;100244.61;4984399;59;21165;-82
2021/08/18 06:22:12;;;;;;;9.87;5.23;;;;;;;15.64;71.45;100240.30;4911064;59;21223;-83
2021/08/18 06:27:17;;;;;;;8.30;4.10;;;;;;;15.78;70.09;100250.37;4820046;61;22228;-85
2021/08/18 06:32:23;;;;;;;7.93;4.43;;;;;;;15.87;69.73;100249.93;4920183;59;22155;-86
2021/08/18 06:37:29;;;;;;;8.30;4.97;;;;;;;15.93;68.68;100237.27;4895330;60;21451;-84
2021/08/18 06:42:35;;;;;;;7.80;5.40;;;;;;;15.93;69.42;100251.44;4984326;59;21125;-84
2021/08/18 06:47:40;;;;;;;7.47;4.47;;;;;;;15.91;69.23;100241.43;4895308;60;21308;-86
2021/08/18 06:52:46;;;;;;;10.03;4.73;;;;;;;15.96;69.78;100249.80;4984085;59;21231;-84
2021/08/18 06:57:52;;;;;;;8.63;5.00;;;;;;;16.06;69.59;100257.66;4976453;58;21571;-83
2021/08/18 07:02:58;;;;;;;8.23;4.10;;;;;;;16.03;68.87;100255.34;4894476;59;21177;-80
2021/08/18 07:08:03;;;;;;;7.27;4.07;;;;;;;16.10;68.47;100244.34;4971851;59;21166;-81
2021/08/18 07:13:09;;;;;;;6.33;4.23;;;;;;;16.18;67.84;100246.56;4883096;60;21287;-84
2021/08/18 07:18:15;;;;;;;5.53;3.80;;;;;;;16.22;68.11;100244.88;4971724;59;21616;-83
2021/08/18 07:23:20;;;;;;;9.77;4.67;;;;;;;16.36;67.20;100253.59;4998144;58;21258;-82
2021/08/18 07:28:28;;;;;;;4.53;3.97;;;;;;;16.31;66.76;100255.44;5044738;58;21175;-83
2021/08/18 07:33:34;;;;;;;8.20;4.83;;;;;;;16.35;67.64;100261.27;4970221;59;21162;-83
2021/08/18 07:38:40;;;;;;;6.93;5.27;;;;;;;16.38;67.16;100253.77;4968419;59;21208;-82
2021/08/18 07:43:46;;;;;;;7.47;4.60;;;;;;;16.33;67.56;100253.45;4971980;59;21526;-83
2021/08/18 07:48:51;;;;;;;11.43;4.67;;;;;;;16.28;67.37;100260.26;4972345;59;21530;-84
2021/08/18 07:53:57;;;;;;;9.47;4.10;;;;;;;16.24;67.90;100263.73;4971530;59;21162;-83
2021/08/18 07:59:03;;;;;;;7.13;4.73;;;;;;;16.26;67.80;100275.09;4883762;60;22252;-84
2021/08/18 08:04:09;;;;;;;9.00;3.87;;;;;;;16.20;67.19;100275.73;4972032;58;21176;-83
2021/08/18 08:09:15;;;;;;;8.00;4.37;;;;;;;16.18;66.76;100276.41;4883712;60;21213;-87
2021/08/18 08:14:21;;;;;;;6.07;4.40;;;;;;;16.20;66.81;100278.39;4883636;60;21193;-85
2021/08/18 08:19:33;;;;;;;6.00;4.17;;;;;;;16.34;66.22;100279.14;4981605;58;21164;-81
2021/08/18 08:24:40;;;;;;;11.97;4.13;;;;;;;16.54;66.73;100268.50;4955391;59;21206;-83
2021/08/18 08:29:48;;;;;;;7.70;3.63;;;;;;;16.60;65.50;100272.86;4883836;60;21165;-82
2021/08/18 08:35:06;;;;;;;9.37;5.07;;;;;;;16.56;65.28;100283.02;4826893;60;21587;-83
2021/08/18 08:40:12;;;;;;;9.00;4.03;;;;;;;16.60;65.46;100287.05;4944431;60;21213;-80
2021/08/18 08:45:19;;;;;;;9.83;3.33;;;;;;;16.67;65.24;100288.58;4944697;60;21208;-79
2021/08/18 08:50:24;;;;;;;9.47;4.80;;;;;;;16.78;64.71;100287.79;4944392;60;21557;-81
2021/08/18 08:55:30;;;;;;;8.10;4.40;;;;;;;17.00;64.24;100291.64;4944231;60;21560;-83
2021/08/18 09:00:36;;;;;;;6.13;3.67;;;;;;;17.36;63.02;100283.30;4944445;60;21180;-80
2021/08/18 09:05:43;;;;;;;5.90;3.30;;;;;;;17.41;59.98;100285.81;4944185;59;21179;-84
2021/08/18 09:11:10;;;;;;;4.00;3.20;;;;;;;17.31;60.98;100286.46;4969690;59;21157;-84
2021/08/18 09:16:20;;;;;;;6.67;3.43;;;;;;;17.16;59.80;100283.63;4969858;58;21169;-80
2021/08/18 09:21:38;;;;;;;6.03;4.50;;;;;;;17.08;60.09;100290.33;5065256;58;21491;-83
2021/08/18 09:26:51;;;;;;;7.73;3.00;;;;;;;17.07;60.43;100282.47;5021938;58;21169;-82
2021/08/18 09:32:00;;;;;;;6.33;3.60;;;;;;;17.05;61.11;100289.31;4963582;59;21122;-82
2021/08/18 09:37:11;;;;;;;7.53;3.90;;;;;;;17.17;61.67;100285.30;4860002;60;21666;-82
2021/08/18 09:42:28;;;;;;;4.80;3.07;;;;;;;17.21;61.14;100294.66;4883530;60;21176;-81
2021/08/18 09:47:33;;;;;;;6.30;4.50;;;;;;;17.24;61.99;100290.83;4880857;60;21193;-83
2021/08/18 09:52:39;;;;;;;5.33;3.63;;;;;;;17.41;62.81;100286.31;4883344;60;21225;-80
2021/08/18 09:57:46;;;;;;;7.13;3.40;;;;;;;17.60;62.27;100287.27;4912259;59;21153;-82
2021/08/18 10:02:53;;;;;;;3.57;3.07;;;;;;;17.68;61.50;100281.95;4971538;59;21504;-82
2021/08/18 10:07:58;;;;;;;4.60;2.90;;;;;;;17.55;60.95;100282.45;4979975;59;21160;-81
2021/08/18 10:13:07;;;;;;;8.00;3.47;;;;;;;17.46;60.61;100282.61;4984497;59;21642;-81
2021/08/18 10:18:36;;;;;;;7.70;3.37;;;;;;;17.46;59.90;100278.09;4951795;59;21184;-83
2021/08/18 10:24:05;;;;;;;3.53;2.27;;;;;;;17.48;60.43;100288.63;4906638;60;21232;-81
2021/08/18 10:29:32;;;;;;;9.30;3.23;;;;;;;17.55;60.21;100286.95;4982971;59;21194;-83
2021/08/18 10:34:45;;;;;;;8.37;3.70;;;;;;;17.59;59.89;100282.41;4930617;59;21568;-81
2021/08/18 10:39:54;;;;;;;5.00;3.37;;;;;;;17.64;60.09;100278.44;4984716;59;21213;-85
2021/08/18 10:45:00;;;;;;;5.43;3.07;;;;;;;17.62;59.34;100283.08;4984683;59;21194;-89
2021/08/18 10:50:17;;;;;;;7.03;3.27;;;;;;;17.76;59.94;100284.59;4984866;59;21161;-89
2021/08/18 10:55:30;;;;;;;5.70;2.87;;;;;;;18.02;59.31;100269.64;4975292;59;21157;-86
2021/08/18 11:00:41;;;;;;;4.53;2.63;;;;;;;18.38;58.10;100263.77;4981712;59;21204;-83
2021/08/18 11:05:52;;;;;;;4.25;3.25;;;;;;;18.53;58.32;100264.70;4970711;58;21169;-83
2021/08/18 11:11:05;;;;;;;2.87;2.30;;;;;;;18.79;58.18;100255.84;4970619;59;21158;-83
2021/08/18 11:16:30;;;;;;;6.87;2.93;;;;;;;18.89;56.56;100257.80;4876638;59;21162;-83
2021/08/18 11:21:40;;;;;;;6.10;3.10;;;;;;;18.82;56.41;100266.20;4958422;59;21206;-84
2021/08/18 11:26:50;;;;;;;4.37;3.00;;;;;;;18.80;56.74;100260.69;4971345;59;21567;-85
2021/08/18 11:31:57;;;;;;;2.17;1.97;;;;;;;18.84;56.44;100254.81;4963681;59;21689;-84
2021/08/18 11:37:10;;;;;;;4.23;2.23;;;;;;;18.87;56.69;100258.98;4890076;59;21274;-82
2021/08/18 11:42:23;;;;;;;5.42;2.67;;;;;;;18.74;55.88;100265.45;4883235;60;22112;-84
2021/08/18 11:47:33;;;;;;;2.47;2.27;;;;;;;18.59;56.17;100257.34;4972023;59;21177;-84
2021/08/18 11:52:39;;;;;;;4.30;2.47;;;;;;;18.47;55.43;100249.35;4883156;60;21242;-87
2021/08/18 11:57:44;;;;;;;3.23;2.37;;;;;;;18.45;56.44;100252.20;4971749;59;21580;-84
2021/08/18 12:02:50;;;;;;;2.63;1.90;;;;;;;18.52;55.88;100254.48;4882934;60;21565;-84
2021/08/18 12:08:16;;;;;;;1.60;1.50;;;;;;;18.53;55.51;100253.48;4976443;59;21122;-83
2021/08/18 12:13:22;;;;;;;3.57;2.80;;;;;;;18.54;55.03;100248.95;4978970;59;21168;-84
2021/08/18 12:18:34;;;;;;;6.93;3.67;;;;;;;18.49;55.43;100254.00;4971708;59;21221;-85
2021/08/18 12:23:45;;;;;;;3.33;1.80;;;;;;;18.41;54.96;100250.87;4980805;59;21188;-83
2021/08/18 12:28:56;;;;;;;5.13;2.23;;;;;;;18.47;55.18;100247.51;4989541;58;21170;-83
2021/08/18 12:34:09;;;;;;;4.63;2.17;;;;;;;18.59;55.97;100253.31;4975332;58;21153;-83
2021/08/18 12:39:15;;;;;;;6.03;2.72;;;;;;;18.76;56.14;100244.67;4980442;59;21166;-82
2021/08/18 12:44:26;;;;;;;2.67;1.30;;;;;;;18.87;54.43;100256.30;4983964;59;21173;-82
2021/08/18 12:49:35;;;;;;;4.53;3.22;;;;;;;18.85;54.55;100256.48;4984707;59;22053;-84
2021/08/18 12:54:40;;;;;;;3.45;2.00;;;;;;;18.90;54.83;100235.34;4984995;59;21460;-83
2021/08/18 12:59:47;;;;;;;2.00;1.82;;;;;;;19.29;55.13;100224.43;4984357;59;21225;-83
2021/08/18 13:04:55;;;;;;;2.55;1.85;;;;;;;19.66;52.92;100230.80;4984035;59;21221;-82
2021/08/18 13:10:03;;;;;;;2.77;1.80;;;;;;;19.84;52.85;100211.14;4976194;59;21184;-81
2021/08/18 13:15:11;;;;;;;5.72;2.50;;;;;;;19.73;51.92;100223.66;4972478;59;21642;-82
2021/08/18 13:20:16;;;;;;;9.88;4.58;;;;;;;19.62;52.07;100206.19;4893724;60;21552;-83
2021/08/18 13:25:22;;;;;;;2.40;2.20;;;;;;;19.50;52.88;100205.49;4889022;59;21216;-85
2021/08/18 13:30:28;;;;;;;1.82;1.72;;;;;;;19.45;52.22;100205.17;5023742;59;21262;-84
2021/08/18 13:35:35;;;;;;;7.75;1.60;;;;;;;19.31;52.93;100209.00;4981587;59;21979;-84
2021/08/18 13:40:41;;;;;;;1.80;1.70;;;;;;;19.22;52.79;100212.78;4972236;59;21803;-84
2021/08/18 13:45:47;;;;;;;2.25;1.82;;;;;;;19.17;53.49;100216.51;4972268;59;22109;-84
2021/08/18 13:50:53;;;;;;;2.17;1.80;;;;;;;19.15;53.42;100210.50;4972293;59;21178;-86
2021/08/18 13:55:59;;;;;;;6.30;2.92;;;;;;;19.18;53.64;100194.05;4967283;59;21205;-85
2021/08/18 14:01:05;;;;;;;45.17;23.45;;;;;;;19.30;53.99;100191.75;4862461;60;21176;-87
2021/08/18 14:06:11;;;;;;;8.43;6.92;;;;;;;19.40;53.66;100184.25;4889675;59;38736;-82
2021/08/18 14:11:16;;;;;;;9.75;2.33;;;;;;;19.50;53.19;100188.89;4844734;59;21186;-84
2021/08/18 14:16:22;;;;;;;4.28;1.80;;;;;;;19.49;53.41;100194.41;4870177;60;21218;-85
2021/08/18 14:21:28;;;;;;;5.97;3.45;;;;;;;19.48;53.54;100195.42;4905672;60;21670;-84
2021/08/18 14:26:34;;;;;;;10.35;4.35;;;;;;;19.48;53.94;100191.40;4882324;60;21555;-84
2021/08/18 14:31:39;;;;;;;7.20;3.65;;;;;;;19.49;54.04;100191.72;4902619;60;21182;-82
2021/08/18 14:36:45;;;;;;;21.07;2.30;;;;;;;19.50;53.14;100186.20;4894039;60;21211;-83
2021/08/18 14:41:52;;;;;;;2.60;1.67;;;;;;;19.50;52.56;100190.23;4869072;60;21683;-84
2021/08/18 14:46:59;;;;;;;1.42;1.37;;;;;;;19.53;52.50;100186.35;4863785;60;21555;-82
2021/08/18 14:52:05;;;;;;;6.33;3.05;;;;;;;19.78;52.49;100178.84;4868960;60;21139;-83
2021/08/18 14:57:12;;;;;;;3.45;2.33;;;;;;;20.19;50.20;100175.92;4829870;61;21190;-82
2021/08/18 15:02:20;;;;;;;3.17;1.87;;;;;;;20.40;49.80;100177.84;4830051;61;21565;-80
2021/08/18 15:07:27;;;;;;;10.78;4.92;;;;;;;20.55;48.47;100165.70;4840576;60;21174;-81
2021/08/18 15:12:35;;;;;;;4.92;2.42;;;;;;;20.66;48.69;100175.41;4841860;58;21218;-83
2021/08/18 15:17:41;;;;;;;7.50;3.17;;;;;;;20.74;47.91;100166.40;4898658;60;21629;-83
2021/08/18 15:22:49;;;;;;;12.05;5.00;;;;;;;20.71;48.20;100177.02;4848987;60;21241;-83
2021/08/18 15:27:56;;;;;;;6.25;5.12;;;;;;;20.50;48.70;100166.77;4865529;60;21242;-82
2021/08/18 15:33:02;;;;;;;17.95;7.47;;;;;;;20.33;49.19;100157.59;4879310;60;21194;-82
2021/08/18 15:38:08;;;;;;;17.20;5.37;;;;;;;20.22;50.02;100166.16;4875573;60;21592;-83
2021/08/18 15:43:14;;;;;;;12.30;3.70;;;;;;;20.19;50.47;100158.98;4849873;60;21206;-82
2021/08/18 15:48:19;;;;;;;7.37;2.83;;;;;;;20.11;50.73;100165.31;4829844;61;21127;-81
2021/08/18 15:53:26;;;;;;;2.85;2.00;;;;;;;20.00;50.05;100155.08;4830119;61;21222;-82
2021/08/18 15:58:33;;;;;;;6.37;3.72;;;;;;;19.92;50.60;100153.83;4830015;61;21186;-82
2021/08/18 16:03:40;;;;;;;2.25;1.62;;;;;;;19.88;50.74;100156.05;4830500;61;21194;-81
2021/08/18 16:08:46;;;;;;;14.65;2.90;;;;;;;19.82;50.80;100156.81;4830666;60;21186;-81
2021/08/18 16:13:52;;;;;;;1.35;1.25;;;;;;;19.78;50.93;100153.34;4889921;60;21187;-83
2021/08/18 16:18:58;;;;;;;5.15;1.60;;;;;;;19.73;51.18;100143.67;4889866;60;21188;-82
2021/08/18 16:24:03;;;;;;;8.93;3.17;;;;;;;19.75;51.52;100141.64;4889798;60;22089;-82
2021/08/18 16:29:09;;;;;;;3.05;1.80;;;;;;;19.76;51.87;100138.77;4889823;60;22137;-82
2021/08/18 16:34:16;;;;;;;7.67;3.20;;;;;;;19.76;51.88;100142.80;4930458;60;21224;-82
2021/08/18 16:39:22;;;;;;;3.65;1.50;;;;;;;19.73;51.83;100136.96;4963126;60;21259;-83
2021/08/18 16:44:28;;;;;;;2.47;1.30;;;;;;;19.73;51.43;100137.80;4963111;60;21237;-83
2021/08/18 16:49:36;;;;;;;2.27;1.40;;;;;;;19.66;51.54;100135.55;4963079;60;21570;-83
2021/08/18 16:54:41;;;;;;;2.50;1.10;;;;;;;19.59;51.83;100138.14;4963314;60;22079;-83
2021/08/18 16:59:47;;;;;;;1.35;1.25;;;;;;;19.51;51.93;100133.39;4963492;60;21183;-82
2021/08/18 17:04:52;;;;;;;5.75;1.65;;;;;;;19.47;52.08;100139.59;4963244;60;21183;-82
2021/08/18 17:09:58;;;;;;;3.77;1.02;;;;;;;19.46;52.39;100133.08;4956803;59;21466;-83
2021/08/18 17:15:04;;;;;;;3.67;1.30;;;;;;;19.42;52.60;100134.45;4901801;60;21135;-82
2021/08/18 17:20:11;;;;;;;1.05;0.95;;;;;;;19.37;52.91;100135.55;4901804;60;21183;-82
2021/08/18 17:25:17;;;;;;;1.55;1.02;;;;;;;19.35;53.17;100137.57;4901835;60;21174;-82
2021/08/18 17:30:23;;;;;;;1.00;1.00;;;;;;;19.30;53.31;100136.78;4901833;60;21244;-82
2021/08/18 17:35:29;;;;;;;1.12;1.02;;;;;;;19.27;53.61;100137.97;4893836;60;21123;-83
2021/08/18 17:40:34;;;;;;;1.60;1.50;;;;;;;19.24;53.78;100142.89;4868737;60;21259;-82
2021/08/18 17:45:44;;;;;;;1.60;1.50;;;;;;;19.20;53.97;100142.93;4870268;60;21219;-82
2021/08/18 17:50:50;;;;;;;1.90;1.42;;;;;;;19.17;54.05;100152.67;4872652;60;21177;-82
2021/08/18 17:55:55;;;;;;;4.08;1.37;;;;;;;19.12;54.22;100151.88;4905716;60;21235;-82
2021/08/18 18:01:01;;;;;;;5.60;2.20;;;;;;;19.05;54.57;100154.98;4873445;60;21219;-84
2021/08/18 18:06:10;;;;;;;3.37;1.00;;;;;;;19.01;54.68;100159.53;4900455;60;21190;-82
2021/08/18 18:11:15;;;;;;;7.60;1.85;;;;;;;18.96;54.97;100159.56;4907589;59;21525;-82
2021/08/18 18:16:21;;;;;;;1.27;1.17;;;;;;;18.92;54.93;100162.30;4914768;60;21189;-82
2021/08/18 18:21:28;;;;;;;6.28;1.27;;;;;;;18.90;55.02;100156.80;4894071;60;21647;-82
2021/08/18 18:26:34;;;;;;;8.70;1.75;;;;;;;18.87;55.28;100163.34;4901135;60;21181;-82
2021/08/18 18:31:40;;;;;;;2.17;1.60;;;;;;;18.83;55.37;100161.20;4883826;60;21179;-83
2021/08/18 18:36:48;;;;;;;1.60;1.50;;;;;;;18.78;55.48;100158.25;4914499;60;21536;-83
2021/08/18 18:41:54;;;;;;;1.82;1.72;;;;;;;18.73;55.60;100156.61;4909004;60;22226;-82
2021/08/18 18:47:00;;;;;;;1.30;1.20;;;;;;;18.68;55.84;100168.36;4889548;60;21181;-83
2021/08/18 18:52:07;;;;;;;2.15;1.82;;;;;;;18.64;55.96;100163.86;4909229;60;21602;-81
2021/08/18 18:57:14;;;;;;;11.60;1.92;;;;;;;18.61;56.01;100170.44;4882431;60;21230;-82
2021/08/18 19:02:20;;;;;;;2.85;1.70;;;;;;;18.58;56.14;100177.48;4880036;60;21193;-83
2021/08/18 19:07:26;;;;;;;1.50;1.40;;;;;;;18.55;56.29;100172.45;4914639;60;21683;-82
2021/08/18 19:12:32;;;;;;;5.17;1.57;;;;;;;18.54;56.39;100172.63;4863664;58;21158;-82
2021/08/18 19:17:38;;;;;;;4.23;2.53;;;;;;;18.54;56.62;100168.10;4894370;60;21443;-83
2021/08/18 19:22:44;;;;;;;2.17;1.70;;;;;;;18.54;56.83;100161.41;4885594;60;21863;-82
2021/08/18 19:27:50;;;;;;;1.70;1.52;;;;;;;18.55;57.06;100159.05;4901716;60;22047;-82
2021/08/18 19:32:56;;;;;;;2.95;1.90;;;;;;;18.55;57.26;100167.59;4864215;60;21635;-83
2021/08/18 19:38:02;;;;;;;3.55;2.00;;;;;;;18.53;57.35;100162.92;4897945;60;21626;-82
2021/08/18 19:43:09;;;;;;;5.42;1.70;;;;;;;18.50;57.55;100153.39;4879729;60;21186;-83
2021/08/18 19:48:15;;;;;;;3.95;1.42;;;;;;;18.48;57.61;100158.13;4876223;60;21126;-83
2021/08/18 19:53:21;;;;;;;8.83;2.00;;;;;;;18.47;57.67;100151.60;4881823;60;21493;-82
2021/08/18 19:58:27;;;;;;;2.70;1.60;;;;;;;18.46;57.74;100150.77;4864968;60;21182;-82
2021/08/18 20:03:34;;;;;;;3.07;1.70;;;;;;;18.45;57.95;100147.77;4860372;60;21176;-82
2021/08/18 20:08:39;;;;;;;4.30;1.50;;;;;;;18.43;57.96;100146.27;4872989;60;21182;-82
2021/08/18 20:13:47;;;;;;;4.08;2.87;;;;;;;18.38;58.22;100146.80;4876544;58;21123;-83
2021/08/18 20:18:53;;;;;;;4.58;1.82;;;;;;;18.38;58.43;100149.98;4879798;60;21679;-83
2021/08/18 20:23:58;;;;;;;2.22;2.00;;;;;;;18.32;58.53;100141.34;4884767;60;21925;-82
2021/08/18 20:29:05;;;;;;;2.37;1.60;;;;;;;18.30;58.67;100143.36;4902521;60;21178;-82
2021/08/18 20:34:11;;;;;;;7.90;2.07;;;;;;;18.28;58.81;100135.50;4900392;60;21190;-82
2021/08/18 20:39:17;;;;;;;1.47;1.37;;;;;;;18.24;59.03;100133.67;4898287;60;21198;-83
2021/08/18 20:44:23;;;;;;;1.67;1.40;;;;;;;18.21;59.44;100136.70;4898293;60;21590;-82
2021/08/18 20:49:29;;;;;;;2.23;1.70;;;;;;;18.18;59.54;100135.71;4897958;60;21557;-83
2021/08/18 20:54:35;;;;;;;3.03;1.30;;;;;;;18.16;59.79;100151.14;4898147;60;21600;-83
2021/08/18 20:59:41;;;;;;;1.40;1.30;;;;;;;18.14;60.07;100145.13;4897890;60;21230;-84
2021/08/18 21:04:47;;;;;;;2.70;0.93;;;;;;;18.13;60.16;100143.97;4897913;60;21647;-82
2021/08/18 21:09:53;;;;;;;1.50;1.40;;;;;;;18.11;60.42;100147.31;4898020;60;21174;-82
2021/08/18 21:14:58;;;;;;;3.17;1.00;;;;;;;18.07;60.85;100152.69;4907980;58;21187;-82
2021/08/18 21:20:07;;;;;;;1.40;1.40;;;;;;;18.04;61.12;100153.03;4912474;60;22182;-82
2021/08/18 21:25:13;;;;;;;1.30;1.20;;;;;;;18.00;61.36;100154.41;4912290;60;21174;-82
2021/08/18 21:30:19;;;;;;;1.40;1.30;;;;;;;17.95;61.50;100150.09;4912167;60;22193;-82
2021/08/18 21:35:25;;;;;;;4.53;1.23;;;;;;;17.91;61.45;100159.80;4915359;60;22057;-82
2021/08/18 21:40:31;;;;;;;5.10;1.30;;;;;;;17.87;61.83;100154.45;4916383;60;21253;-81
2021/08/18 21:45:36;;;;;;;1.87;1.50;;;;;;;17.84;61.93;100144.12;4916147;60;22086;-82
2021/08/18 21:50:42;;;;;;;2.87;1.60;;;;;;;17.79;62.77;100155.84;4916253;60;21220;-82
2021/08/18 21:55:48;;;;;;;1.50;1.40;;;;;;;17.72;63.22;100152.19;4916234;60;22074;-82
2021/08/18 22:00:55;;;;;;;1.03;0.97;;;;;;;17.71;63.43;100144.36;4916141;60;21237;-82
2021/08/18 22:06:01;;;;;;;1.27;1.10;;;;;;;17.71;63.44;100141.69;4916118;60;21507;-82
2021/08/18 22:11:07;;;;;;;1.23;1.13;;;;;;;17.73;63.53;100136.47;4916224;60;21222;-82
2021/08/18 22:16:13;;;;;;;1.57;1.40;;;;;;;17.72;64.05;100132.13;4910079;59;21724;-82
2021/08/18 22:21:18;;;;;;;4.97;1.30;;;;;;;17.71;63.88;100129.15;4906822;60;21244;-82
2021/08/18 22:26:24;;;;;;;1.23;1.07;;;;;;;17.72;64.01;100126.77;4906882;60;21488;-82
2021/08/18 22:31:30;;;;;;;3.30;1.40;;;;;;;17.72;63.73;100125.97;4906925;60;21189;-83
2021/08/18 22:36:37;;;;;;;5.43;1.30;;;;;;;17.68;64.08;100123.31;4902754;60;21211;-82
2021/08/18 22:41:42;;;;;;;14.47;1.47;;;;;;;17.63;64.44;100121.11;4902627;60;21707;-83
2021/08/18 22:46:48;;;;;;;1.40;1.33;;;;;;;17.61;64.11;100123.13;4902738;60;21123;-83
2021/08/18 22:51:53;;;;;;;2.30;1.33;;;;;;;17.57;64.16;100120.45;4902809;60;21116;-83
2021/08/18 22:56:59;;;;;;;2.10;1.90;;;;;;;17.56;64.25;100119.66;4902772;60;21189;-82
2021/08/18 23:02:06;;;;;;;2.73;1.70;;;;;;;17.52;64.23;100115.66;4902687;60;21158;-82
2021/08/18 23:07:11;;;;;;;3.80;1.17;;;;;;;17.52;64.34;100121.00;4902793;60;21572;-82
2021/08/18 23:12:17;;;;;;;3.80;1.37;;;;;;;17.51;64.41;100122.01;4903031;60;21210;-83
2021/08/18 23:17:33;;;;;;;1.37;1.23;;;;;;;17.49;64.92;100123.19;4902889;59;21590;-83
2021/08/18 23:22:31;;;;;;;2.93;1.53;;;;;;;17.48;64.64;100119.67;4901849;60;21205;-83
2021/08/18 23:27:37;;;;;;;1.03;1.03;;;;;;;17.43;65.00;100124.70;4902831;60;21576;-79
2021/08/18 23:32:43;;;;;;;2.57;1.37;;;;;;;17.44;64.99;100114.33;4903951;60;21209;-80
2021/08/18 23:37:49;;;;;;;3.47;1.20;;;;;;;17.44;64.95;100118.34;4906917;60;21189;-81
2021/08/18 23:42:54;;;;;;;2.73;1.20;;;;;;;17.45;65.12;100113.83;4906889;60;21196;-80
2021/08/18 23:48:00;;;;;;;5.17;1.47;;;;;;;17.44;65.13;100119.68;4906922;60;21603;-80